sensor_id;sensor_type;location;lat;lon;timestamp;P1;durP1;ratioP1;P2;durP2;ratioP2
25467;SDS011;13384;24.794;110.498;2023-05-07T00:02:08;16.58;;;10.43;;
25467;SDS011;13384;24.794;110.498;2023-05-07T00:04:39;11.18;;;8.23;;
25467;SDS011;13384;24.794;110.498;2023-05-07T00:07:11;9.18;;;7.35;;
25467;SDS011;13384;24.794;110.498;2023-05-07T00:09:43;11.68;;;8.52;;
25467;SDS011;13384;24.794;110.498;2023-05-07T00:12:14;9.85;;;8.15;;
25467;SDS011;13384;24.794;110.498;2023-05-07T00:14:45;9.07;;;7.53;;
25467;SDS011;13384;24.794;110.498;2023-05-07T00:17:16;8.70;;;7.30;;
25467;SDS011;13384;24.794;110.498;2023-05-07T00:20:00;8.35;;;6.25;;
25467;SDS011;13384;24.794;110.498;2023-05-07T00:22:32;15.07;;;8.93;;
25467;SDS011;13384;24.794;110.498;2023-05-07T00:25:03;10.57;;;8.13;;
25467;SDS011;13384;24.794;110.498;2023-05-07T00:27:34;12.77;;;9.25;;
25467;SDS011;13384;24.794;110.498;2023-05-07T00:30:06;12.73;;;9.10;;
25467;SDS011;13384;24.794;110.498;2023-05-07T00:32:38;9.65;;;6.93;;
25467;SDS011;13384;24.794;110.498;2023-05-07T00:35:14;9.88;;;7.00;;
25467;SDS011;13384;24.794;110.498;2023-05-07T00:37:56;9.45;;;6.65;;
25467;SDS011;13384;24.794;110.498;2023-05-07T00:40:28;10.27;;;6.50;;
25467;SDS011;13384;24.794;110.498;2023-05-07T00:42:59;9.90;;;6.60;;
25467;SDS011;13384;24.794;110.498;2023-05-07T00:45:30;9.70;;;6.88;;
25467;SDS011;13384;24.794;110.498;2023-05-07T00:48:01;21.10;;;13.20;;
25467;SDS011;13384;24.794;110.498;2023-05-07T00:50:39;8.77;;;6.47;;
25467;SDS011;13384;24.794;110.498;2023-05-07T00:53:10;11.82;;;7.85;;
25467;SDS011;13384;24.794;110.498;2023-05-07T00:55:41;9.07;;;6.85;;
25467;SDS011;13384;24.794;110.498;2023-05-07T00:58:14;14.27;;;7.57;;
25467;SDS011;13384;24.794;110.498;2023-05-07T01:00:45;11.52;;;7.70;;
25467;SDS011;13384;24.794;110.498;2023-05-07T01:03:17;12.15;;;8.18;;
25467;SDS011;13384;24.794;110.498;2023-05-07T01:05:49;18.50;;;8.85;;
25467;SDS011;13384;24.794;110.498;2023-05-07T01:08:22;53.85;;;27.02;;
25467;SDS011;13384;24.794;110.498;2023-05-07T01:10:54;24.35;;;13.85;;
25467;SDS011;13384;24.794;110.498;2023-05-07T01:13:26;28.00;;;16.75;;
25467;SDS011;13384;24.794;110.498;2023-05-07T01:15:58;20.42;;;11.38;;
25467;SDS011;13384;24.794;110.498;2023-05-07T01:18:29;37.67;;;22.35;;
25467;SDS011;13384;24.794;110.498;2023-05-07T01:21:01;9.05;;;5.55;;
25467;SDS011;13384;24.794;110.498;2023-05-07T01:23:32;13.82;;;8.63;;
25467;SDS011;13384;24.794;110.498;2023-05-07T01:26:18;7.45;;;5.47;;
25467;SDS011;13384;24.794;110.498;2023-05-07T01:28:50;9.52;;;7.10;;
25467;SDS011;13384;24.794;110.498;2023-05-07T01:31:21;9.68;;;7.10;;
25467;SDS011;13384;24.794;110.498;2023-05-07T01:33:56;11.88;;;6.65;;
25467;SDS011;13384;24.794;110.498;2023-05-07T01:36:28;6.80;;;4.88;;
25467;SDS011;13384;24.794;110.498;2023-05-07T01:39:00;21.58;;;12.75;;
25467;SDS011;13384;24.794;110.498;2023-05-07T01:41:32;6.15;;;4.85;;
25467;SDS011;13384;24.794;110.498;2023-05-07T01:44:03;4.38;;;3.83;;
25467;SDS011;13384;24.794;110.498;2023-05-07T01:46:36;9.70;;;6.53;;
25467;SDS011;13384;24.794;110.498;2023-05-07T01:49:08;17.00;;;9.07;;
25467;SDS011;13384;24.794;110.498;2023-05-07T01:51:39;15.27;;;9.35;;
25467;SDS011;13384;24.794;110.498;2023-05-07T01:54:11;26.67;;;14.25;;
25467;SDS011;13384;24.794;110.498;2023-05-07T01:56:44;13.20;;;8.18;;
25467;SDS011;13384;24.794;110.498;2023-05-07T01:59:20;25.77;;;12.43;;
25467;SDS011;13384;24.794;110.498;2023-05-07T02:01:51;7.55;;;4.97;;
25467;SDS011;13384;24.794;110.498;2023-05-07T02:04:22;4.32;;;3.70;;
25467;SDS011;13384;24.794;110.498;2023-05-07T02:06:55;6.75;;;3.97;;
25467;SDS011;13384;24.794;110.498;2023-05-07T02:09:48;6.45;;;3.53;;
25467;SDS011;13384;24.794;110.498;2023-05-07T02:12:21;3.88;;;3.30;;
25467;SDS011;13384;24.794;110.498;2023-05-07T02:14:52;3.75;;;3.45;;
25467;SDS011;13384;24.794;110.498;2023-05-07T02:17:24;8.95;;;6.35;;
25467;SDS011;13384;24.794;110.498;2023-05-07T02:19:56;4.13;;;3.50;;
25467;SDS011;13384;24.794;110.498;2023-05-07T02:22:41;7.25;;;4.60;;
25467;SDS011;13384;24.794;110.498;2023-05-07T02:25:13;5.97;;;4.45;;
25467;SDS011;13384;24.794;110.498;2023-05-07T02:27:44;6.65;;;3.53;;
25467;SDS011;13384;24.794;110.498;2023-05-07T02:30:40;3.92;;;3.45;;
25467;SDS011;13384;24.794;110.498;2023-05-07T02:33:31;5.00;;;3.47;;
25467;SDS011;13384;24.794;110.498;2023-05-07T02:36:08;5.05;;;3.42;;
25467;SDS011;13384;24.794;110.498;2023-05-07T02:38:52;7.38;;;3.20;;
25467;SDS011;13384;24.794;110.498;2023-05-07T02:43:57;10.25;;;4.18;;
25467;SDS011;13384;24.794;110.498;2023-05-07T02:46:29;6.32;;;3.88;;
25467;SDS011;13384;24.794;110.498;2023-05-07T02:49:07;3.20;;;2.90;;
25467;SDS011;13384;24.794;110.498;2023-05-07T02:51:40;18.40;;;12.07;;
25467;SDS011;13384;24.794;110.498;2023-05-07T02:54:20;2.90;;;2.60;;
25467;SDS011;13384;24.794;110.498;2023-05-07T02:56:52;3.92;;;2.63;;
25467;SDS011;13384;24.794;110.498;2023-05-07T02:59:42;3.28;;;2.90;;
25467;SDS011;13384;24.794;110.498;2023-05-07T03:02:14;4.43;;;3.40;;
25467;SDS011;13384;24.794;110.498;2023-05-07T03:04:46;4.80;;;2.92;;
25467;SDS011;13384;24.794;110.498;2023-05-07T03:07:18;6.65;;;3.63;;
25467;SDS011;13384;24.794;110.498;2023-05-07T03:09:52;3.05;;;2.53;;
25467;SDS011;13384;24.794;110.498;2023-05-07T03:12:46;2.97;;;2.10;;
25467;SDS011;13384;24.794;110.498;2023-05-07T03:15:18;3.53;;;2.95;;
25467;SDS011;13384;24.794;110.498;2023-05-07T03:17:54;4.63;;;2.53;;
25467;SDS011;13384;24.794;110.498;2023-05-07T03:20:26;3.58;;;2.40;;
25467;SDS011;13384;24.794;110.498;2023-05-07T03:22:57;3.00;;;2.70;;
25467;SDS011;13384;24.794;110.498;2023-05-07T03:25:29;3.00;;;2.47;;
25467;SDS011;13384;24.794;110.498;2023-05-07T03:28:00;3.83;;;2.97;;
25467;SDS011;13384;24.794;110.498;2023-05-07T03:30:41;4.43;;;3.10;;
25467;SDS011;13384;24.794;110.498;2023-05-07T03:33:12;2.80;;;2.40;;
25467;SDS011;13384;24.794;110.498;2023-05-07T03:36:03;3.22;;;2.50;;
25467;SDS011;13384;24.794;110.498;2023-05-07T03:38:35;2.47;;;1.98;;
25467;SDS011;13384;24.794;110.498;2023-05-07T03:41:06;5.75;;;3.22;;
25467;SDS011;13384;24.794;110.498;2023-05-07T03:43:38;3.22;;;2.28;;
25467;SDS011;13384;24.794;110.498;2023-05-07T03:46:11;3.13;;;2.58;;
25467;SDS011;13384;24.794;110.498;2023-05-07T03:48:45;2.45;;;2.20;;
25467;SDS011;13384;24.794;110.498;2023-05-07T03:51:19;4.55;;;3.25;;
25467;SDS011;13384;24.794;110.498;2023-05-07T03:53:50;6.20;;;3.40;;
25467;SDS011;13384;24.794;110.498;2023-05-07T03:56:28;2.25;;;2.05;;
25467;SDS011;13384;24.794;110.498;2023-05-07T03:59:02;2.40;;;2.20;;
25467;SDS011;13384;24.794;110.498;2023-05-07T04:01:33;3.03;;;2.45;;
25467;SDS011;13384;24.794;110.498;2023-05-07T04:04:04;2.33;;;2.13;;
25467;SDS011;13384;24.794;110.498;2023-05-07T04:06:37;3.88;;;2.47;;
25467;SDS011;13384;24.794;110.498;2023-05-07T04:09:08;4.20;;;2.40;;
25467;SDS011;13384;24.794;110.498;2023-05-07T04:11:39;12.05;;;6.43;;
25467;SDS011;13384;24.794;110.498;2023-05-07T04:14:11;12.40;;;6.53;;
25467;SDS011;13384;24.794;110.498;2023-05-07T04:17:03;19.52;;;10.32;;
25467;SDS011;13384;24.794;110.498;2023-05-07T04:19:55;2.78;;;2.42;;
25467;SDS011;13384;24.794;110.498;2023-05-07T04:25:07;4.43;;;3.60;;
25467;SDS011;13384;24.794;110.498;2023-05-07T04:27:39;7.93;;;5.55;;
25467;SDS011;13384;24.794;110.498;2023-05-07T04:30:12;6.33;;;4.67;;
25467;SDS011;13384;24.794;110.498;2023-05-07T04:32:45;2.80;;;2.60;;
25467;SDS011;13384;24.794;110.498;2023-05-07T04:35:19;3.13;;;2.83;;
25467;SDS011;13384;24.794;110.498;2023-05-07T04:37:52;3.30;;;3.00;;
25467;SDS011;13384;24.794;110.498;2023-05-07T04:40:23;3.00;;;2.70;;
25467;SDS011;13384;24.794;110.498;2023-05-07T04:42:55;4.55;;;2.83;;
25467;SDS011;13384;24.794;110.498;2023-05-07T04:45:27;3.20;;;2.60;;
25467;SDS011;13384;24.794;110.498;2023-05-07T04:48:03;5.03;;;2.67;;
25467;SDS011;13384;24.794;110.498;2023-05-07T04:50:34;13.32;;;12.00;;
25467;SDS011;13384;24.794;110.498;2023-05-07T04:53:47;32.63;;;25.88;;
25467;SDS011;13384;24.794;110.498;2023-05-07T04:56:18;4.88;;;3.28;;
25467;SDS011;13384;24.794;110.498;2023-05-07T04:58:50;4.13;;;3.40;;
25467;SDS011;13384;24.794;110.498;2023-05-07T05:01:45;3.58;;;3.15;;
25467;SDS011;13384;24.794;110.498;2023-05-07T05:04:16;2.63;;;2.42;;
25467;SDS011;13384;24.794;110.498;2023-05-07T05:06:48;2.10;;;1.90;;
25467;SDS011;13384;24.794;110.498;2023-05-07T05:09:21;2.20;;;2.10;;
25467;SDS011;13384;24.794;110.498;2023-05-07T05:11:55;4.38;;;2.10;;
25467;SDS011;13384;24.794;110.498;2023-05-07T05:17:12;5.53;;;4.03;;
25467;SDS011;13384;24.794;110.498;2023-05-07T05:19:44;9.05;;;7.78;;
25467;SDS011;13384;24.794;110.498;2023-05-07T05:22:36;3.05;;;2.72;;
25467;SDS011;13384;24.794;110.498;2023-05-07T05:25:08;2.17;;;1.98;;
25467;SDS011;13384;24.794;110.498;2023-05-07T05:27:39;2.10;;;1.90;;
25467;SDS011;13384;24.794;110.498;2023-05-07T05:30:11;2.05;;;1.88;;
25467;SDS011;13384;24.794;110.498;2023-05-07T05:32:46;9.52;;;5.28;;
25467;SDS011;13384;24.794;110.498;2023-05-07T05:35:19;2.78;;;1.75;;
25467;SDS011;13384;24.794;110.498;2023-05-07T05:38:24;5.15;;;1.90;;
25467;SDS011;13384;24.794;110.498;2023-05-07T05:40:55;2.10;;;1.90;;
25467;SDS011;13384;24.794;110.498;2023-05-07T05:43:29;1.83;;;1.73;;
25467;SDS011;13384;24.794;110.498;2023-05-07T05:46:00;2.55;;;1.85;;
25467;SDS011;13384;24.794;110.498;2023-05-07T05:48:46;2.85;;;1.63;;
25467;SDS011;13384;24.794;110.498;2023-05-07T05:51:17;2.70;;;2.00;;
25467;SDS011;13384;24.794;110.498;2023-05-07T05:53:50;2.10;;;1.55;;
25467;SDS011;13384;24.794;110.498;2023-05-07T05:56:24;2.05;;;1.88;;
25467;SDS011;13384;24.794;110.498;2023-05-07T05:58:55;2.20;;;2.00;;
25467;SDS011;13384;24.794;110.498;2023-05-07T06:01:27;2.40;;;2.20;;
25467;SDS011;13384;24.794;110.498;2023-05-07T06:04:01;2.25;;;2.05;;
25467;SDS011;13384;24.794;110.498;2023-05-07T06:06:34;2.22;;;2.03;;
25467;SDS011;13384;24.794;110.498;2023-05-07T06:14:13;1.95;;;1.70;;
25467;SDS011;13384;24.794;110.498;2023-05-07T06:16:44;1.88;;;1.70;;
25467;SDS011;13384;24.794;110.498;2023-05-07T06:19:16;3.63;;;1.90;;
25467;SDS011;13384;24.794;110.498;2023-05-07T06:21:54;1.95;;;1.60;;
25467;SDS011;13384;24.794;110.498;2023-05-07T06:24:31;1.98;;;1.83;;
25467;SDS011;13384;24.794;110.498;2023-05-07T06:27:06;1.70;;;1.60;;
25467;SDS011;13384;24.794;110.498;2023-05-07T06:29:38;2.00;;;1.80;;
25467;SDS011;13384;24.794;110.498;2023-05-07T06:32:30;3.15;;;2.08;;
25467;SDS011;13384;24.794;110.498;2023-05-07T06:35:02;3.75;;;2.00;;
25467;SDS011;13384;24.794;110.498;2023-05-07T06:37:36;2.38;;;1.98;;
25467;SDS011;13384;24.794;110.498;2023-05-07T06:40:18;3.22;;;2.00;;
25467;SDS011;13384;24.794;110.498;2023-05-07T06:42:50;2.08;;;1.70;;
25467;SDS011;13384;24.794;110.498;2023-05-07T06:45:42;3.97;;;1.60;;
25467;SDS011;13384;24.794;110.498;2023-05-07T06:48:19;4.38;;;3.35;;
25467;SDS011;13384;24.794;110.498;2023-05-07T06:51:06;3.72;;;3.15;;
25467;SDS011;13384;24.794;110.498;2023-05-07T06:54:10;2.17;;;1.77;;
25467;SDS011;13384;24.794;110.498;2023-05-07T06:56:43;2.33;;;2.13;;
25467;SDS011;13384;24.794;110.498;2023-05-07T06:59:15;1.75;;;1.65;;
25467;SDS011;13384;24.794;110.498;2023-05-07T07:02:10;1.73;;;1.55;;
25467;SDS011;13384;24.794;110.498;2023-05-07T07:05:24;2.47;;;2.10;;
25467;SDS011;13384;24.794;110.498;2023-05-07T07:07:56;2.35;;;1.80;;
25467;SDS011;13384;24.794;110.498;2023-05-07T07:10:28;2.33;;;2.00;;
25467;SDS011;13384;24.794;110.498;2023-05-07T07:13:13;1.77;;;1.67;;
25467;SDS011;13384;24.794;110.498;2023-05-07T07:15:51;2.65;;;2.33;;
25467;SDS011;13384;24.794;110.498;2023-05-07T07:18:41;2.80;;;2.17;;
25467;SDS011;13384;24.794;110.498;2023-05-07T07:21:12;2.55;;;2.22;;
25467;SDS011;13384;24.794;110.498;2023-05-07T07:23:44;2.30;;;2.00;;
25467;SDS011;13384;24.794;110.498;2023-05-07T07:26:16;2.15;;;2.03;;
25467;SDS011;13384;24.794;110.498;2023-05-07T07:29:09;2.13;;;1.85;;
25467;SDS011;13384;24.794;110.498;2023-05-07T07:32:08;6.50;;;2.50;;
25467;SDS011;13384;24.794;110.498;2023-05-07T07:34:40;2.28;;;1.95;;
25467;SDS011;13384;24.794;110.498;2023-05-07T07:37:12;4.32;;;2.10;;
25467;SDS011;13384;24.794;110.498;2023-05-07T07:39:43;4.65;;;2.03;;
25467;SDS011;13384;24.794;110.498;2023-05-07T07:42:15;5.80;;;2.20;;
25467;SDS011;13384;24.794;110.498;2023-05-07T07:44:54;2.35;;;2.13;;
25467;SDS011;13384;24.794;110.498;2023-05-07T07:47:33;2.67;;;2.30;;
25467;SDS011;13384;24.794;110.498;2023-05-07T07:50:04;2.40;;;2.20;;
25467;SDS011;13384;24.794;110.498;2023-05-07T07:52:56;2.33;;;1.92;;
25467;SDS011;13384;24.794;110.498;2023-05-07T07:55:27;2.33;;;2.10;;
25467;SDS011;13384;24.794;110.498;2023-05-07T07:58:02;3.45;;;2.33;;
25467;SDS011;13384;24.794;110.498;2023-05-07T08:01:13;3.40;;;2.58;;
25467;SDS011;13384;24.794;110.498;2023-05-07T08:03:47;3.15;;;2.53;;
25467;SDS011;13384;24.794;110.498;2023-05-07T08:06:47;3.80;;;2.28;;
25467;SDS011;13384;24.794;110.498;2023-05-07T08:09:19;2.55;;;2.25;;
25467;SDS011;13384;24.794;110.498;2023-05-07T08:11:51;2.50;;;2.30;;
25467;SDS011;13384;24.794;110.498;2023-05-07T08:14:23;2.45;;;2.25;;
25467;SDS011;13384;24.794;110.498;2023-05-07T08:16:54;4.50;;;2.95;;
25467;SDS011;13384;24.794;110.498;2023-05-07T08:19:26;2.92;;;2.33;;
25467;SDS011;13384;24.794;110.498;2023-05-07T08:21:58;4.55;;;2.50;;
25467;SDS011;13384;24.794;110.498;2023-05-07T08:24:29;2.55;;;2.35;;
25467;SDS011;13384;24.794;110.498;2023-05-07T08:27:01;2.75;;;2.40;;
25467;SDS011;13384;24.794;110.498;2023-05-07T08:29:33;3.22;;;2.70;;
25467;SDS011;13384;24.794;110.498;2023-05-07T08:32:05;3.60;;;2.50;;
25467;SDS011;13384;24.794;110.498;2023-05-07T08:34:36;2.58;;;2.38;;
25467;SDS011;13384;24.794;110.498;2023-05-07T08:37:10;2.97;;;2.70;;
25467;SDS011;13384;24.794;110.498;2023-05-07T08:39:41;2.55;;;2.35;;
25467;SDS011;13384;24.794;110.498;2023-05-07T08:42:18;2.88;;;2.63;;
25467;SDS011;13384;24.794;110.498;2023-05-07T08:45:04;2.35;;;2.15;;
25467;SDS011;13384;24.794;110.498;2023-05-07T08:47:44;5.90;;;3.67;;
25467;SDS011;13384;24.794;110.498;2023-05-07T08:50:18;3.17;;;2.88;;
25467;SDS011;13384;24.794;110.498;2023-05-07T08:53:04;3.35;;;3.05;;
25467;SDS011;13384;24.794;110.498;2023-05-07T08:55:36;3.42;;;3.10;;
25467;SDS011;13384;24.794;110.498;2023-05-07T09:00:51;6.32;;;3.92;;
25467;SDS011;13384;24.794;110.498;2023-05-07T09:03:24;5.83;;;3.87;;
25467;SDS011;13384;24.794;110.498;2023-05-07T09:05:58;3.97;;;3.35;;
25467;SDS011;13384;24.794;110.498;2023-05-07T09:08:31;4.95;;;4.07;;
25467;SDS011;13384;24.794;110.498;2023-05-07T09:11:05;9.93;;;5.75;;
25467;SDS011;13384;24.794;110.498;2023-05-07T09:13:38;3.97;;;3.58;;
25467;SDS011;13384;24.794;110.498;2023-05-07T09:16:12;7.65;;;3.70;;
25467;SDS011;13384;24.794;110.498;2023-05-07T09:19:04;7.38;;;4.80;;
25467;SDS011;13384;24.794;110.498;2023-05-07T09:22:02;2.92;;;2.70;;
25467;SDS011;13384;24.794;110.498;2023-05-07T09:24:47;5.60;;;3.85;;
25467;SDS011;13384;24.794;110.498;2023-05-07T09:27:22;2.97;;;2.67;;
25467;SDS011;13384;24.794;110.498;2023-05-07T09:29:55;6.37;;;5.77;;
25467;SDS011;13384;24.794;110.498;2023-05-07T09:32:26;6.53;;;4.95;;
25467;SDS011;13384;24.794;110.498;2023-05-07T09:34:58;7.13;;;4.22;;
25467;SDS011;13384;24.794;110.498;2023-05-07T09:37:31;4.30;;;3.85;;
25467;SDS011;13384;24.794;110.498;2023-05-07T09:40:03;5.00;;;4.13;;
25467;SDS011;13384;24.794;110.498;2023-05-07T09:42:37;10.98;;;8.60;;
25467;SDS011;13384;24.794;110.498;2023-05-07T09:45:11;11.98;;;8.93;;
25467;SDS011;13384;24.794;110.498;2023-05-07T09:48:02;12.82;;;8.80;;
25467;SDS011;13384;24.794;110.498;2023-05-07T09:50:36;7.13;;;5.75;;
25467;SDS011;13384;24.794;110.498;2023-05-07T09:53:08;5.13;;;4.30;;
25467;SDS011;13384;24.794;110.498;2023-05-07T09:55:41;5.15;;;4.13;;
25467;SDS011;13384;24.794;110.498;2023-05-07T09:58:13;5.90;;;4.22;;
25467;SDS011;13384;24.794;110.498;2023-05-07T10:01:00;4.15;;;3.83;;
25467;SDS011;13384;24.794;110.498;2023-05-07T10:03:32;9.15;;;5.05;;
25467;SDS011;13384;24.794;110.498;2023-05-07T10:06:24;8.80;;;5.90;;
25467;SDS011;13384;24.794;110.498;2023-05-07T10:09:15;6.20;;;5.57;;
25467;SDS011;13384;24.794;110.498;2023-05-07T10:11:48;7.53;;;5.35;;
25467;SDS011;13384;24.794;110.498;2023-05-07T10:14:41;5.75;;;5.18;;
25467;SDS011;13384;24.794;110.498;2023-05-07T10:17:12;6.15;;;5.30;;
25467;SDS011;13384;24.794;110.498;2023-05-07T10:19:46;8.77;;;5.72;;
25467;SDS011;13384;24.794;110.498;2023-05-07T10:22:20;15.88;;;8.85;;
25467;SDS011;13384;24.794;110.498;2023-05-07T10:24:52;6.68;;;5.72;;
25467;SDS011;13384;24.794;110.498;2023-05-07T10:27:45;7.15;;;5.63;;
25467;SDS011;13384;24.794;110.498;2023-05-07T10:33:24;7.60;;;6.80;;
25467;SDS011;13384;24.794;110.498;2023-05-07T10:36:00;7.38;;;5.75;;
25467;SDS011;13384;24.794;110.498;2023-05-07T10:38:36;8.20;;;7.13;;
25467;SDS011;13384;24.794;110.498;2023-05-07T10:41:09;10.40;;;6.72;;
25467;SDS011;13384;24.794;110.498;2023-05-07T10:44:27;12.93;;;10.90;;
25467;SDS011;13384;24.794;110.498;2023-05-07T10:47:14;14.85;;;13.35;;
25467;SDS011;13384;24.794;110.498;2023-05-07T10:50:19;12.27;;;10.98;;
25467;SDS011;13384;24.794;110.498;2023-05-07T10:52:44;8.15;;;6.40;;
25467;SDS011;13384;24.794;110.498;2023-05-07T10:55:20;6.70;;;6.05;;
25467;SDS011;13384;24.794;110.498;2023-05-07T11:01:13;7.38;;;6.45;;
25467;SDS011;13384;24.794;110.498;2023-05-07T11:04:16;7.18;;;5.82;;
25467;SDS011;13384;24.794;110.498;2023-05-07T11:07:44;8.20;;;6.05;;
25467;SDS011;13384;24.794;110.498;2023-05-07T11:10:22;6.40;;;5.75;;
25467;SDS011;13384;24.794;110.498;2023-05-07T11:13:03;7.18;;;6.45;;
25467;SDS011;13384;24.794;110.498;2023-05-07T11:15:44;12.52;;;9.00;;
25467;SDS011;13384;24.794;110.498;2023-05-07T11:18:27;9.25;;;6.32;;
25467;SDS011;13384;24.794;110.498;2023-05-07T11:21:38;7.57;;;6.35;;
25467;SDS011;13384;24.794;110.498;2023-05-07T11:24:29;6.47;;;5.88;;
25467;SDS011;13384;24.794;110.498;2023-05-07T11:27:30;6.25;;;5.55;;
25467;SDS011;13384;24.794;110.498;2023-05-07T11:30:02;6.65;;;5.80;;
25467;SDS011;13384;24.794;110.498;2023-05-07T11:32:34;9.32;;;7.15;;
25467;SDS011;13384;24.794;110.498;2023-05-07T11:35:05;8.90;;;6.43;;
25467;SDS011;13384;24.794;110.498;2023-05-07T11:37:44;6.55;;;5.78;;
25467;SDS011;13384;24.794;110.498;2023-05-07T11:40:24;6.88;;;6.10;;
25467;SDS011;13384;24.794;110.498;2023-05-07T11:42:55;6.82;;;6.13;;
25467;SDS011;13384;24.794;110.498;2023-05-07T11:45:47;5.88;;;5.22;;
25467;SDS011;13384;24.794;110.498;2023-05-07T11:48:19;6.85;;;6.10;;
25467;SDS011;13384;24.794;110.498;2023-05-07T11:51:02;6.70;;;6.00;;
25467;SDS011;13384;24.794;110.498;2023-05-07T11:53:38;7.00;;;6.30;;
25467;SDS011;13384;24.794;110.498;2023-05-07T11:56:10;9.27;;;6.25;;
25467;SDS011;13384;24.794;110.498;2023-05-07T11:58:42;6.18;;;5.57;;
25467;SDS011;13384;24.794;110.498;2023-05-07T12:01:35;8.48;;;6.10;;
25467;SDS011;13384;24.794;110.498;2023-05-07T12:04:06;8.40;;;6.15;;
25467;SDS011;13384;24.794;110.498;2023-05-07T12:06:37;5.95;;;5.35;;
25467;SDS011;13384;24.794;110.498;2023-05-07T12:09:28;6.47;;;5.53;;
25467;SDS011;13384;24.794;110.498;2023-05-07T12:12:04;7.18;;;6.35;;
25467;SDS011;13384;24.794;110.498;2023-05-07T12:14:42;6.57;;;5.95;;
25467;SDS011;13384;24.794;110.498;2023-05-07T12:17:15;8.38;;;6.43;;
25467;SDS011;13384;24.794;110.498;2023-05-07T12:19:52;7.40;;;6.60;;
25467;SDS011;13384;24.794;110.498;2023-05-07T12:22:45;8.27;;;6.50;;
25467;SDS011;13384;24.794;110.498;2023-05-07T12:25:19;8.02;;;6.32;;
25467;SDS011;13384;24.794;110.498;2023-05-07T12:27:52;8.18;;;6.50;;
25467;SDS011;13384;24.794;110.498;2023-05-07T12:31:08;7.03;;;6.25;;
25467;SDS011;13384;24.794;110.498;2023-05-07T12:33:40;9.30;;;6.68;;
25467;SDS011;13384;24.794;110.498;2023-05-07T12:36:12;6.93;;;6.10;;
25467;SDS011;13384;24.794;110.498;2023-05-07T12:38:44;7.00;;;6.13;;
25467;SDS011;13384;24.794;110.498;2023-05-07T12:41:15;6.80;;;6.03;;
25467;SDS011;13384;24.794;110.498;2023-05-07T12:44:04;6.85;;;6.15;;
25467;SDS011;13384;24.794;110.498;2023-05-07T12:49:18;8.30;;;5.88;;
25467;SDS011;13384;24.794;110.498;2023-05-07T12:54:37;8.07;;;6.75;;
25467;SDS011;13384;24.794;110.498;2023-05-07T12:57:28;8.20;;;6.47;;
25467;SDS011;13384;24.794;110.498;2023-05-07T12:59:59;7.35;;;6.45;;
25467;SDS011;13384;24.794;110.498;2023-05-07T13:02:34;7.32;;;6.50;;
25467;SDS011;13384;24.794;110.498;2023-05-07T13:05:06;7.45;;;5.95;;
25467;SDS011;13384;24.794;110.498;2023-05-07T13:07:52;7.50;;;6.25;;
25467;SDS011;13384;24.794;110.498;2023-05-07T13:10:23;7.50;;;6.10;;
25467;SDS011;13384;24.794;110.498;2023-05-07T13:12:56;8.83;;;6.20;;
25467;SDS011;13384;24.794;110.498;2023-05-07T13:15:27;7.78;;;6.28;;
25467;SDS011;13384;24.794;110.498;2023-05-07T13:18:11;6.65;;;5.95;;
25467;SDS011;13384;24.794;110.498;2023-05-07T13:21:03;6.85;;;6.13;;
25467;SDS011;13384;24.794;110.498;2023-05-07T13:23:36;8.35;;;6.38;;
25467;SDS011;13384;24.794;110.498;2023-05-07T13:26:11;7.88;;;6.18;;
25467;SDS011;13384;24.794;110.498;2023-05-07T13:28:57;7.00;;;6.20;;
25467;SDS011;13384;24.794;110.498;2023-05-07T13:31:29;9.68;;;6.63;;
25467;SDS011;13384;24.794;110.498;2023-05-07T13:34:01;9.20;;;6.57;;
25467;SDS011;13384;24.794;110.498;2023-05-07T13:36:53;6.68;;;5.68;;
25467;SDS011;13384;24.794;110.498;2023-05-07T13:39:46;7.78;;;6.28;;
25467;SDS011;13384;24.794;110.498;2023-05-07T13:42:42;8.07;;;6.05;;
25467;SDS011;13384;24.794;110.498;2023-05-07T13:45:15;6.38;;;5.78;;
25467;SDS011;13384;24.794;110.498;2023-05-07T13:48:07;6.55;;;5.30;;
25467;SDS011;13384;24.794;110.498;2023-05-07T13:50:53;7.85;;;6.38;;
25467;SDS011;13384;24.794;110.498;2023-05-07T13:53:45;7.22;;;6.20;;
25467;SDS011;13384;24.794;110.498;2023-05-07T13:56:37;9.27;;;6.00;;
25467;SDS011;13384;24.794;110.498;2023-05-07T13:59:15;7.68;;;6.25;;
25467;SDS011;13384;24.794;110.498;2023-05-07T14:02:07;7.97;;;5.40;;
25467;SDS011;13384;24.794;110.498;2023-05-07T14:04:41;7.80;;;6.30;;
25467;SDS011;13384;24.794;110.498;2023-05-07T14:07:13;7.68;;;6.47;;
25467;SDS011;13384;24.794;110.498;2023-05-07T14:09:45;9.70;;;6.25;;
25467;SDS011;13384;24.794;110.498;2023-05-07T14:12:35;9.77;;;6.30;;
25467;SDS011;13384;24.794;110.498;2023-05-07T14:15:12;7.97;;;6.45;;
25467;SDS011;13384;24.794;110.498;2023-05-07T14:17:44;8.63;;;6.78;;
25467;SDS011;13384;24.794;110.498;2023-05-07T14:20:19;6.78;;;6.07;;
25467;SDS011;13384;24.794;110.498;2023-05-07T14:22:51;6.10;;;5.50;;
25467;SDS011;13384;24.794;110.498;2023-05-07T14:27:55;6.85;;;5.47;;
25467;SDS011;13384;24.794;110.498;2023-05-07T14:30:27;8.00;;;6.57;;
25467;SDS011;13384;24.794;110.498;2023-05-07T14:32:59;7.65;;;6.30;;
25467;SDS011;13384;24.794;110.498;2023-05-07T14:35:42;7.10;;;5.85;;
25467;SDS011;13384;24.794;110.498;2023-05-07T14:38:18;7.65;;;6.35;;
25467;SDS011;13384;24.794;110.498;2023-05-07T14:40:49;7.35;;;6.13;;
25467;SDS011;13384;24.794;110.498;2023-05-07T14:43:23;7.10;;;6.40;;
25467;SDS011;13384;24.794;110.498;2023-05-07T14:45:55;10.10;;;6.93;;
25467;SDS011;13384;24.794;110.498;2023-05-07T14:48:28;7.68;;;6.50;;
25467;SDS011;13384;24.794;110.498;2023-05-07T14:51:02;7.40;;;6.07;;
25467;SDS011;13384;24.794;110.498;2023-05-07T14:53:34;8.85;;;6.70;;
25467;SDS011;13384;24.794;110.498;2023-05-07T14:56:08;7.00;;;6.28;;
25467;SDS011;13384;24.794;110.498;2023-05-07T14:58:39;10.23;;;7.28;;
25467;SDS011;13384;24.794;110.498;2023-05-07T15:01:35;7.22;;;6.03;;
25467;SDS011;13384;24.794;110.498;2023-05-07T15:04:07;8.70;;;7.23;;
25467;SDS011;13384;24.794;110.498;2023-05-07T15:06:39;6.95;;;6.25;;
25467;SDS011;13384;24.794;110.498;2023-05-07T15:09:36;10.98;;;7.05;;
25467;SDS011;13384;24.794;110.498;2023-05-07T15:12:08;10.13;;;6.63;;
25467;SDS011;13384;24.794;110.498;2023-05-07T15:14:47;9.00;;;6.80;;
25467;SDS011;13384;24.794;110.498;2023-05-07T15:17:54;9.27;;;7.22;;
25467;SDS011;13384;24.794;110.498;2023-05-07T15:20:46;13.10;;;7.43;;
25467;SDS011;13384;24.794;110.498;2023-05-07T15:23:45;9.95;;;7.03;;
25467;SDS011;13384;24.794;110.498;2023-05-07T15:26:19;8.55;;;7.53;;
25467;SDS011;13384;24.794;110.498;2023-05-07T15:29:03;8.32;;;7.30;;
25467;SDS011;13384;24.794;110.498;2023-05-07T15:32:00;9.90;;;7.80;;
25467;SDS011;13384;24.794;110.498;2023-05-07T15:37:13;9.13;;;7.55;;
25467;SDS011;13384;24.794;110.498;2023-05-07T15:39:44;10.68;;;7.75;;
25467;SDS011;13384;24.794;110.498;2023-05-07T15:42:17;9.07;;;7.85;;
25467;SDS011;13384;24.794;110.498;2023-05-07T15:44:48;11.20;;;8.30;;
25467;SDS011;13384;24.794;110.498;2023-05-07T15:47:19;10.63;;;8.43;;
25467;SDS011;13384;24.794;110.498;2023-05-07T15:50:10;9.68;;;7.68;;
25467;SDS011;13384;24.794;110.498;2023-05-07T15:52:41;9.93;;;8.07;;